Portada
METAR-TAF:

METAR-TAF

Aeroports :

Aeroport Internacional de Kansai

Kansai, Japó

latitud: 34-25N, longitud: 135-15E, altitud: 5 m

Observació

L'informe es va fer fa 49 minuts, a les 04:00 UTC
Vent 2 kt amb direcció variable
Temperatura 26°C
Humitat 42%
Pressió 1012 hPa
Visibilitat 10 km o més
Escasses núvols a una alçada de 3000 ft

METAR: RJBB 240400Z VRB02KT 9999 FEW030 26/12 Q1012 NOSIG

Hora: 13:49 (04:49 UTC)

Pronòstic

L'informe es va fer fa 5 hores i 42 minuts, a les 23:07 UTC
Pronòstic vàlid del 24 a les 00 UTC al 25 a les 06 UTC
Vent 5 kt del Sud-Oest
Visibilitat 10 km o més
Escasses núvols a una alçada de 3500 ft

TAF: RJBB 232307Z 2400/2506 22005KT 9999 FEW035

Observacions i pronòstics meteorològics de més de 4000 aeroports (METAR i TAF).

Les estacions disponibles són els punts grocs i vermells al mapa.

Posi el ratolí al punt desitjat per veure el nom de l'estació.

Feu clic per veure les observacions i els pronòstics meteorològics.

Per canviar el mapa: feu clic els botons verds amb una creu de color negre per apropar; al botó verd amb un guió per allunyar la imatge; o en les fletxes verdes per a mapes adjacents.


METAR-TAF: